Flight Track Log - Related Links

Times and Time Zones

All times are in EDT time to prevent confusion due to time zone crossing. See the RPA3253 flight status page for this flight to view local times or setup timezone preferences in your user account.

Time Position Orientation Groundspeed Altitude Reporting Facility
EDT Latitude Longitude Course Direction KTS MPH feet Rate Location/Type
Wed 07:23:46 PM 42.7714 -73.8061 117° Southeast 150 173 1,400  Level Boston Center
Wed 07:24:53 PM 42.8169 -73.8497 325° Northwest 211 243 3,500 2,571 Climbing Boston Center
Wed 07:26:00 PM 42.4382 -74.1391 180° South  Level Estimated
Wed 07:26:06 PM 42.8806 -73.9275 318° Northwest 279 321 7,400  Level Boston Center
Wed 07:27:00 PM 42.3603 -74.2228 170° South  Level Estimated
Wed 07:27:06 PM 42.9336 -73.9969 316° Northwest 279 321 10,300  Level Boston Center
Wed 07:28:00 PM 42.2824 -74.3064 169° South  Level Estimated
Wed 07:28:06 PM 42.9972 -74.0753 318° Northwest 291 335 12,800  Level Boston Center
Wed 07:29:00 PM 42.2374 -74.1865 117° Southeast  Level FlightAware Approximate
Wed 07:29:06 PM 43.0586 -74.1564 316° Northwest 296 341 15,500  Level Boston Center
Wed 07:30:06 PM 43.0611 -74.2617 272° West 293 337 17,600 2,100 Climbing Boston Center
Wed 07:31:06 PM 42.9856 -74.2906 196° South 270 311 19,700 2,050 Climbing Boston Center
Wed 07:32:06 PM 42.8822 -74.2308 157° South 302 348 21,700 1,900 Climbing Boston Center
Wed 07:33:06 PM 42.7792 -74.1686 156° South 348 400 23,500 1,800 Climbing Boston Center
Wed 07:34:06 PM 42.6736 -74.1061 156° South 384 442 25,300 1,650 Climbing Boston Center
Wed 07:35:06 PM 42.5661 -74.0497 159° South 410 472 26,800 1,550 Climbing Boston Center
Wed 07:36:06 PM 42.4567 -73.9850 156° South 415 478 28,400 1,250 Climbing Boston Center
Wed 07:37:06 PM 42.3675 -73.9350 157° South 420 483 29,300 1,100 Climbing Boston Center
Wed 07:38:06 PM 42.2331 -73.8617 158° South 435 501 30,600 1,150 Climbing Boston Center
Wed 07:39:06 PM 42.1172 -73.8031 159° South 435 501 31,600 1,100 Climbing Boston Center
Wed 07:40:06 PM 42.0294 -73.8208 189° South 410 472 32,800 1,186 Climbing Boston Center
Wed 07:42:03 PM 41.8128 -73.9242 200° South 376 433 35,100 966 Climbing New York Center
Wed 07:43:00 PM 41.7136 -73.9722 200° South 376 433 35,600 458 Climbing New York Center
Wed 07:44:01 PM 41.6147 -74.0203 200° South 376 433 36,000 198 Climbing New York Center
Wed 07:45:01 PM 41.5175 -74.0653 199° South 370 426 36,000  Level New York Center
Wed 07:46:02 PM 41.4206 -74.1075 198° South 378 435 36,000  Level New York Center
Wed 07:47:03 PM 41.3278 -74.1528 200° South 372 428 36,000  Level New York Center
Wed 07:48:01 PM 41.2306 -74.1975 199° South 372 428 36,000  Level New York Center
Wed 07:49:01 PM 41.1314 -74.2392 198° South 372 428 36,000  Level New York Center
Wed 07:50:01 PM 41.0364 -74.2839 200° South 372 428 36,000  Level New York Center
Wed 07:51:02 PM 40.9414 -74.3311 201° Southwest 372 428 36,000  Level New York Center
Wed 07:52:00 PM 40.8483 -74.3756 200° South 372 428 36,000  Level New York Center
Wed 07:53:01 PM 40.7672 -74.4397 211° Southwest 362 417 36,000  Level New York Center
Wed 07:54:01 PM 40.7078 -74.5353 231° Southwest 344 396 36,000  Level New York Center
Wed 07:55:02 PM 40.6506 -74.6306 232° Southwest 338 389 36,000  Level New York Center
Wed 07:56:03 PM 40.5933 -74.7256 232° Southwest 343 395 36,000  Level New York Center
Wed 07:57:02 PM 40.5319 -74.8150 228° Southwest 343 395 36,000  Level New York Center
Wed 07:58:02 PM 40.4706 -74.9042 228° Southwest 338 389 36,000  Level New York Center
Wed 07:59:03 PM 40.4069 -74.9931 227° Southwest 338 389 36,000  Level New York Center
Wed 08:00:01 PM 40.3433 -75.0817 227° Southwest 338 389 36,000  Level New York Center
Wed 08:01:02 PM 40.2817 -75.1703 228° Southwest 338 389 36,000  Level New York Center
Wed 08:02:02 PM 40.2178 -75.2586 227° Southwest 338 389 36,000  Level New York Center
Wed 08:03:03 PM 40.1561 -75.3472 228° Southwest 338 389 36,000  Level New York Center
Wed 08:04:02 PM 40.0942 -75.4353 227° Southwest 338 389 36,000  Level New York Center
Wed 08:05:02 PM 40.0303 -75.5206 226° Southwest 333 383 36,000  Level New York Center
Wed 08:06:00 PM 39.9708 -75.6003 226° Southwest 333 383 36,000  Level New York Center
Wed 08:07:01 PM 39.9108 -75.6883 228° Southwest 333 383 36,000  Level New York Center
Wed 08:08:02 PM 39.8528 -75.7817 231° Southwest 333 383 36,000  Level New York Center
Wed 08:09:02 PM 39.7947 -75.8719 230° Southwest 333 383 36,000  Level New York Center
Wed 08:10:41 PM 39.6961 -76.0256 230° Southwest 344 396 36,000  Level Washington Center
Wed 08:11:41 PM 39.6417 -76.1169 232° Southwest 344 396 36,000  Level Washington Center
Wed 08:12:40 PM 39.5828 -76.2053 229° Southwest 339 390 36,000  Level Washington Center
Wed 08:13:40 PM 39.5261 -76.2992 232° Southwest 334 384 36,000  Level Washington Center
Wed 08:14:40 PM 39.4653 -76.3844 227° Southwest 334 384 36,000  Level Washington Center
Wed 08:15:41 PM 39.4083 -76.4781 232° Southwest 334 384 36,000  Level Washington Center
Wed 08:16:41 PM 39.3408 -76.5792 229° Southwest 334 384 36,000  Level Washington Center
Wed 08:17:42 PM 39.2817 -76.6694 230° Southwest 334 384 36,000  Level Washington Center
Wed 08:18:42 PM 39.2225 -76.7597 230° Southwest 334 384 36,000  Level Washington Center
Wed 08:19:40 PM 39.1631 -76.8550 231° Southwest 334 384 36,000  Level Washington Center
Wed 08:20:40 PM 39.1039 -76.9478 231° Southwest 339 390 36,000  Level Washington Center
Wed 08:21:41 PM 39.0422 -77.0400 229° Southwest 339 390 36,000  Level Washington Center
Wed 08:22:42 PM 38.9703 -77.1189 220° Southwest 339 390 36,000  Level Washington Center
Wed 08:23:40 PM 38.9069 -77.1894 221° Southwest 339 390 36,000  Level Washington Center
Wed 08:24:41 PM 38.8331 -77.2678 220° Southwest 344 396 36,000  Level Washington Center
Wed 08:25:42 PM 38.7608 -77.3489 221° Southwest 349 402 36,000  Level Washington Center
Wed 08:26:42 PM 38.6889 -77.4269 220° Southwest 349 402 36,000  Level Washington Center
Wed 08:27:40 PM 38.6125 -77.5072 219° Southwest 349 402 36,000  Level Washington Center
Wed 08:28:40 PM 38.5403 -77.5878 221° Southwest 349 402 36,000  Level Washington Center
Wed 08:29:42 PM 38.4681 -77.6653 220° Southwest 349 402 36,000  Level Washington Center
Wed 08:30:40 PM 38.3978 -77.7456 222° Southwest 343 395 36,000  Level Washington Center
Wed 08:31:40 PM 38.3236 -77.8228 219° Southwest 343 395 36,000  Level Washington Center
Wed 08:32:41 PM 38.2511 -77.9025 221° Southwest 343 395 36,000  Level Washington Center
Wed 08:33:42 PM 38.1786 -77.9822 221° Southwest 343 395 36,000  Level Washington Center
Wed 08:34:42 PM 38.1061 -78.0592 220° Southwest 343 395 36,000  Level Washington Center
Wed 08:35:42 PM 38.0336 -78.1383 221° Southwest 343 395 36,000  Level Washington Center
Wed 08:36:42 PM 37.9650 -78.2283 226° Southwest 332 382 36,000  Level Washington Center
Wed 08:37:40 PM 37.9089 -78.3106 229° Southwest 341 392 36,000  Level Washington Center
Wed 08:38:40 PM 37.8464 -78.4031 229° Southwest 346 398 36,000  Level Washington Center
Wed 08:39:41 PM 37.7836 -78.4928 228° Southwest 346 398 36,000  Level Washington Center
Wed 08:40:41 PM 37.7189 -78.5819 227° Southwest 346 398 36,000  Level Washington Center
Wed 08:41:42 PM 37.6497 -78.6817 229° Southwest 351 404 36,000  Level Washington Center
Wed 08:42:40 PM 37.5867 -78.7733 229° Southwest 351 404 36,000  Level Washington Center
Wed 08:43:41 PM 37.5217 -78.8622 227° Southwest 351 404 36,000 -198 Level Washington Center
Wed 08:44:41 PM 37.4567 -78.9536 228° Southwest 351 404 35,600 -893 Descending Washington Center
Wed 08:45:42 PM 37.3958 -79.0347 227° Southwest 351 404 34,200 -1,311 Descending Washington Center
Wed 08:46:40 PM 37.3306 -79.1283 229° Southwest 356 410 33,000 -1,109 Descending Washington Center
Wed 08:47:41 PM 37.2611 -79.2244 228° Southwest 362 417 32,000 -492 Descending Washington Center
Wed 08:48:42 PM 37.1772 -79.3011 216° Southwest 362 417 32,000  Level Washington Center
Wed 08:49:40 PM 37.0875 -79.3725 212° Southwest 375 432 32,000  Level Washington Center
Wed 08:50:41 PM 36.9931 -79.4536 214° Southwest 386 444 32,000 -98 Level Washington Center
Wed 08:51:42 PM 36.9053 -79.5244 213° Southwest 386 444 31,800 -857 Descending Washington Center
Wed 08:52:40 PM 36.8172 -79.5953 213° Southwest 386 444 30,300 -1,613 Descending Washington Center
Wed 08:53:41 PM 36.7292 -79.6686 214° Southwest 386 444 28,600 -2,018 Descending Washington Center
Wed 08:56:20 PM 36.4878 -79.8633 213° Southwest 383 441 22,900 -1,419 Descending Atlanta Center
Wed 08:58:20 PM 36.3133 -80.0064 213° Southwest 377 434 22,000 -300 Descending Atlanta Center
Wed 08:59:20 PM 36.2258 -80.0803 214° Southwest 382 440 22,000 -1,000 Level Atlanta Center
Wed 09:00:20 PM 36.1489 -80.1458 215° Southwest 382 440 20,000 -2,050 Descending Atlanta Center
Wed 09:01:20 PM 36.0633 -80.2167 214° Southwest 382 440 17,900 -2,129 Descending Atlanta Center
Wed 09:02:24 PM 35.9681 -80.3058 217° Southwest 355 409 15,600 -2,018 Descending Atlanta Center
Wed 09:03:13 PM 35.9092 -80.3572 215° Southwest 346 398 14,100 -1,418 Descending Atlanta Center
Wed 09:04:14 PM 35.8339 -80.4219 215° Southwest 323 372 13,000 -1,086 Descending Atlanta Center
Wed 09:05:09 PM 35.7647 -80.4764 213° Southwest 311 358 12,000 -1,293 Descending Atlanta Center
Wed 09:06:10 PM 35.6889 -80.5231 207° Southwest 308 354 10,500 458 Descending Atlanta Center
Wed 09:07:20 PM 35.5942 -80.5731 203° Southwest 304 350 13,000 -1,781 Climbing Atlanta Center
Wed 09:08:18 PM 35.5264 -80.6092 203° Southwest 294 338 6,700 -3,559 Descending Atlanta Center
Wed 09:09:18 PM 35.4522 -80.6481 203° Southwest 284 327 6,000 -446 Descending Atlanta Center
Wed 09:10:19 PM 35.3911 -80.7014 215° Southwest 259 298 5,800 -738 Descending Atlanta Center
Wed 09:11:20 PM 35.3469 -80.7644 229° Southwest 251 289 4,500 -1,140 Descending Atlanta Center
Wed 09:12:20 PM 35.3067 -80.8169 227° Southwest 226 260 3,500 -1,000 Descending Atlanta Center

Login

Don't have an account? Register now (free) for customized features, flight alerts, and more!